Redwood City, CA (94064)

02:26 AM PDT die 05o July, anno 2015 (GMT -0700)
Sterling Heights | | Change Station
CLOSE
Current Station
Personal Weather Stations
Location: Redwood City, CA
Elevation: 134 ft
Nearby Weather Stations

Elev 134 ft 37.46 °N, 122.25 °W | Updated 4 seconds ago

Aequaliter Nubila
Aequaliter Nubila
63.7 °F
Feels Like 63.7 °F
N
4.0
Ventus Variabilis Ventus from Inter Austrum et Zephyrum
Gusts 4.0 mph

Hodie
High -- | Low -- °F
--% Chance of Precip.
Yesterday
High -- | Low -- °F
Precip. -- in
5:53 AM 8:33 PM
Waning Gibbous, 86% visible
Pressio 29.90 in
Visibilitas 10.0 milia passuum
Clouds Aequaliter Nubila 1200 ft
Frigus in quo Ros apparet 58 °F
Umor 81%
Rainfall 0.00 in
Snow Depth Not available.
UV 0 out of 12
Pollen 3.80 out of 12
Air Quality Not available.
Flu Activity Not available.
METAR KSQL 050910Z AUTO 25003KT 10SM OVC012 18/15 A2990 RMK AO2

More Conditions Fewer Conditions

Pressio 29.90 in
Visibilitas 10.0 milia passuum
Clouds Aequaliter Nubila 1200 ft
Frigus in quo Ros apparet 58 °F
Umor 81%
Rainfall 0.00 in
Snow Depth Not available.
UV 0 out of 12
Pollen 3.80 out of 12
Air Quality Not available.
Flu Activity Not available.
METAR KSQL 050910Z AUTO 25003KT 10SM OVC012 18/15 A2990 RMK AO2

More Conditions Fewer Conditions

10-Day Weather Forecast

×

Almanac

Astronomy

Jul. 05, 2015 Rise Set
Actual Time
Civil Twilight
Nautical Twilight
Astronomical Twilight
Moon
Length Of Visible Light
Length of Day
Tomorrow will be .
, % of the Moon is Illuminated

Today's Extremes

State Highs State Lows

Community

WunderPhotos

Upload Photos

1,835,218 photos uploaded!

WunderBlogs® & News

Nearby

Air Quality

  Air Quality AQ Index Pollutant
Not available.

Snow Depth

Station Depth Elevation

Earthquake Activity

City Distance Mag. Time & Date
Minimum magnitude displayed is 2.5.

Coastal Water Temperatures

Locus Calor

Stations

Nearby Weather Stations

Station Location Temp Frigus Venti Frigus in quo Ros apparet Umor Ventus Precip. Elev Renovata Type